Queen Of Burnaby — VCVV — position and weather

sailwx.info

Track history (hours):
 
Tides and Currents Weather Stations Pressure Air Temp Water Temp Dewpoint Dewpoint Depression Visibility Wind Speed Wind Dir Waves Ship Positions

Queen Of Burnaby

Last reported at 2016-May-01 18:34 UTC. Time now 2016-May-01 19:27 UTC.
Position N 49°50' W 124°32'.

Length 130 m; draft 4 m.

MMSI: 316001246.

Date/timePositionNaut miles runAvg speedWind from/ knotsBaromVisibWave heightAir tempDewpointWater temp
2016-May-01 18:34N 49°50' W 124°32'1010.2
2016-May-01 17:33N 49°46' W 124°47'6 6.0
2016-May-01 16:33N 49°44' W 124°55'1211.8
2016-May-01 15:33N 49°49' W 124°38'2 2.3
2016-May-01 14:33N 49°50' W 124°35'1212.1
2016-May-01 13:33N 49°45' W 124°53'2 1.4
2016-May-01 12:10N 49°44' W 124°55'0 0.0
2016-May-01 11:28N 49°44' W 124°55'0 0.0
2016-May-01 10:25N 49°44' W 124°55'0 0.0
2016-May-01 09:28N 49°44' W 124°55'0 0.0
2016-May-01 08:28N 49°44' W 124°55'0 0.0
2016-May-01 07:28N 49°44' W 124°55'0 0.0
2016-May-01 06:31N 49°44' W 124°55'0 0.0
2016-May-01 05:31N 49°44' W 124°55'5 5.0
2016-May-01 04:33N 49°46' W 124°49'1111.4
2016-May-01 03:34N 49°50' W 124°32'8 8.2
2016-May-01 02:34N 49°47' W 124°44'8 7.7
2016-May-01 01:32N 49°44' W 124°55'0 0.0
2016-May-01 00:29N 49°44' W 124°55'0 0.0
2016-Apr-30 23:26N 49°44' W 124°55'0 0.0
2016-Apr-30 22:32N 49°44' W 124°55'0 0.0
2016-Apr-30 20:15N 49°44' W 124°55'710.2
2016-Apr-30 19:33N 49°47' W 124°45'9 8.8
2016-Apr-30 18:32N 49°50' W 124°32'1010.1
2016-Apr-30 17:33N 49°47' W 124°46'6 6.3
2016-Apr-30 16:33N 49°44' W 124°55'1010.5
2016-Apr-30 15:34N 49°48' W 124°40'5 5.2
2016-Apr-30 14:33N 49°50' W 124°33'1413.5
2016-Apr-30 13:33N 49°45' W 124°52'2 1.9
2016-Apr-30 12:25N 49°44' W 124°55'0 0.0
2016-Apr-30 11:28N 49°44' W 124°55'0 0.0
2016-Apr-30 10:31N 49°44' W 124°55'0 0.0
2016-Apr-30 09:28N 49°44' W 124°55'0 0.0
2016-Apr-30 08:31N 49°44' W 124°55'0 0.0
2016-Apr-30 07:31N 49°44' W 124°55'0 0.0
2016-Apr-30 06:31N 49°44' W 124°55'0 0.0
2016-Apr-30 05:31N 49°44' W 124°55'7 6.9
2016-Apr-30 04:34N 49°47' W 124°46'10 9.6
2016-Apr-30 03:33N 49°50' W 124°32'1414.2
2016-Apr-30 02:33N 49°45' W 124°53'0 0.5
2016-Apr-30 01:33N 49°45' W 124°52'1413.7
2016-Apr-30 00:33N 49°50' W 124°32'6 6.3
2016-Apr-29 23:33N 49°48' W 124°41'10 8.4
2016-Apr-29 22:22N 49°44' W 124°55'0 0.0
2016-Apr-29 21:22N 49°44' W 124°55'0 0.0
2016-Apr-29 20:31N 49°44' W 124°55'9 8.8
2016-Apr-29 19:33N 49°47' W 124°43'8 7.7
2016-Apr-29 18:33N 49°50' W 124°32'1111.0
2016-Apr-29 17:33N 49°46' W 124°48'5 5.2
2016-Apr-29 16:33N 49°44' W 124°55'1212.4
2016-Apr-29 15:34N 49°49' W 124°38'3 2.9
2016-Apr-29 14:33N 49°50' W 124°33'1313.4
2016-Apr-29 13:33N 49°45' W 124°53'2 0.6
2016-Apr-29 10:31N 49°44' W 124°55'0 0.0
2016-Apr-29 09:13N 49°44' W 124°55'0 0.0
2016-Apr-29 08:28N 49°44' W 124°55'0 0.0
2016-Apr-29 07:31N 49°44' W 124°55'0 0.0
2016-Apr-29 06:31N 49°44' W 124°55'0 0.0
2016-Apr-29 05:28N 49°44' W 124°55'6 6.4
2016-Apr-29 04:33N 49°47' W 124°47'1010.5
2016-Apr-29 03:34N 49°50' W 124°32'1313.3
2016-Apr-29 02:33N 49°45' W 124°51'3 2.9
2016-Apr-29 01:33N 49°44' W 124°55'1212.2
2016-Apr-29 00:33N 49°49' W 124°38'4 4.0
2016-Apr-28 23:33N 49°50' W 124°32'1413.7
2016-Apr-28 22:33N 49°45' W 124°52'2 1.9
2016-Apr-28 21:23N 49°44' W 124°55'0 0.0
2016-Apr-28 20:26N 49°44' W 124°55'8 9.0
2016-Apr-28 19:33N 49°47' W 124°44'8 8.3
2016-Apr-28 18:33N 49°50' W 124°32'10 9.9
2016-Apr-28 17:33N 49°47' W 124°46'6 6.4
2016-Apr-28 16:33N 49°44' W 124°55'1111.2
2016-Apr-28 15:33N 49°48' W 124°39'5 4.9
2016-Apr-28 14:33N 49°50' W 124°32'1414.4
2016-Apr-28 13:33N 49°45' W 124°53'2 1.8
2016-Apr-28 12:33N 49°44' W 124°55'0 0.0
2016-Apr-28 11:33N 49°44' W 124°55'0 0.0
2016-Apr-28 10:27N 49°44' W 124°55'0 0.0
2016-Apr-28 09:33N 49°44' W 124°55'0 0.0
2016-Apr-28 08:33N 49°44' W 124°55'0 0.0
2016-Apr-28 07:30N 49°44' W 124°55'0 0.0
2016-Apr-28 06:33N 49°44' W 124°55'0 0.0
2016-Apr-28 05:33N 49°44' W 124°55'5 5.0
2016-Apr-28 04:33N 49°46' W 124°48'1111.3
2016-Apr-28 03:33N 49°50' W 124°32'8 8.1
2016-Apr-28 02:33N 49°47' W 124°44'8 8.0
2016-Apr-28 01:33N 49°44' W 124°55'0 0.0
2016-Apr-28 00:30N 49°44' W 124°55'0 0.0
2016-Apr-27 23:30N 49°44' W 124°55'0 0.0
2016-Apr-27 22:33N 49°44' W 124°55'0 0.0
2016-Apr-27 21:18N 49°44' W 124°55'0 0.0
2016-Apr-27 20:30N 49°44' W 124°55'8 8.1
2016-Apr-27 19:33N 49°47' W 124°45'9 8.6
2016-Apr-27 18:33N 49°50' W 124°32'10 9.5
2016-Apr-27 17:33N 49°47' W 124°46'7 6.7
2016-Apr-27 16:33N 49°44' W 124°55'1110.7
2016-Apr-27 15:33N 49°48' W 124°40'5 5.0
2016-Apr-27 14:34N 49°50' W 124°33'1413.7
2016-Apr-27 13:33N 49°45' W 124°53'2 1.9
2016-Apr-27 12:31N 49°44' W 124°55'0 0.0
2016-Apr-27 11:31N 49°44' W 124°55'0 0.0
2016-Apr-27 10:31N 49°44' W 124°55'0 0.0
2016-Apr-27 09:31N 49°44' W 124°55'0 0.0
2016-Apr-27 08:31N 49°44' W 124°55'0 0.0
2016-Apr-27 07:31N 49°44' W 124°55'0 0.0
2016-Apr-27 06:29N 49°44' W 124°55'0 0.0
2016-Apr-27 05:32N 49°44' W 124°55'6 6.5
2016-Apr-27 04:33N 49°47' W 124°46'10 9.9
2016-Apr-27 03:33N 49°50' W 124°32'1313.1
2016-Apr-27 02:34N 49°46' W 124°51'3 3.2
2016-Apr-27 01:33N 49°44' W 124°55'1212.1
2016-Apr-27 00:33N 49°49' W 124°38'4 3.6
2016-Apr-26 23:33N 49°50' W 124°33'1413.8
2016-Apr-26 22:33N 49°45' W 124°53'2 2.0
2016-Apr-26 21:32N 49°44' W 124°55'0 0.0
2016-Apr-26 20:32N 49°44' W 124°55'8 7.9
2016-Apr-26 19:34N 49°47' W 124°44'9 8.5
2016-Apr-26 18:34N 49°50' W 124°32'9 9.4
2016-Apr-26 17:34N 49°47' W 124°46'7 6.7
2016-Apr-26 16:33N 49°44' W 124°55'1111.0
2016-Apr-26 15:33N 49°48' W 124°40'5 4.6
2016-Apr-26 14:33N 49°50' W 124°33'1413.6
2016-Apr-26 13:34N 49°45' W 124°53'2 1.8
2016-Apr-26 12:28N 49°44' W 124°55'0 0.0
2016-Apr-26 11:28N 49°44' W 124°55'0 0.0
2016-Apr-26 10:31N 49°44' W 124°55'0 0.0
2016-Apr-26 09:31N 49°44' W 124°55'0 0.0
2016-Apr-26 08:31N 49°44' W 124°55'0 0.0
2016-Apr-26 07:31N 49°44' W 124°55'0 0.0
2016-Apr-26 06:31N 49°44' W 124°55'0 0.0
2016-Apr-26 05:31N 49°44' W 124°55'5 5.2
2016-Apr-26 04:33N 49°46' W 124°48'1111.3
2016-Apr-26 03:33N 49°50' W 124°32'1212.5
2016-Apr-26 02:33N 49°46' W 124°50'4 3.7
2016-Apr-26 01:33N 49°44' W 124°55'1212.0
2016-Apr-26 00:33N 49°49' W 124°38'3 3.5
2016-Apr-25 23:33N 49°50' W 124°33'1312.9
2016-Apr-25 22:33N 49°45' W 124°52'2 2.4
2016-Apr-25 21:33N 49°44' W 124°55'0 0.0
2016-Apr-25 20:33N 49°44' W 124°55'8 7.8
2016-Apr-25 19:33N 49°47' W 124°44'8 8.5
2016-Apr-25 18:34N 49°50' W 124°32'1110.6
2016-Apr-25 17:33N 49°46' W 124°47'6 5.6
2016-Apr-25 16:34N 49°44' W 124°55'1111.4
2016-Apr-25 15:34N 49°48' W 124°39'4 3.9
2016-Apr-25 14:33N 49°50' W 124°34'1413.7
2016-Apr-25 13:33N 49°45' W 124°53'2 1.6
2016-Apr-25 12:33N 49°44' W 124°55'0 0.0
2016-Apr-25 11:33N 49°44' W 124°55'0 0.0
2016-Apr-25 10:33N 49°44' W 124°55'0 0.0
2016-Apr-25 09:33N 49°44' W 124°55'0 0.0
2016-Apr-25 08:33N 49°44' W 124°55'0 0.0
2016-Apr-25 07:33N 49°44' W 124°55'0 0.0
2016-Apr-25 06:33N 49°44' W 124°55'0 0.0
2016-Apr-25 05:27N 49°44' W 124°55'6 6.3
2016-Apr-25 04:34N 49°48' W 124°48'1110.8
2016-Apr-25 03:33N 49°50' W 124°32'1212.5
2016-Apr-25 02:34N 49°46' W 124°50'4 3.9
2016-Apr-25 01:33N 49°44' W 124°55'1212.3
2016-Apr-25 00:33N 49°49' W 124°38'3 3.4
2016-Apr-24 23:33N 49°50' W 124°33'1312.5
2016-Apr-24 22:33N 49°45' W 124°51'3 2.7
2016-Apr-24 21:26N 49°44' W 124°55'0 0.0
2016-Apr-24 20:26N 49°44' W 124°55'7 8.4
2016-Apr-24 19:33N 49°47' W 124°45'9 9.0
2016-Apr-24 18:33N 49°50' W 124°32'10 9.8
2016-Apr-24 17:33N 49°47' W 124°46'6 6.4
2016-Apr-24 16:33N 49°44' W 124°55'1111.1
2016-Apr-24 15:33N 49°48' W 124°39'4 4.0
2016-Apr-24 14:34N 49°50' W 124°34'1413.9
2016-Apr-24 13:33N 49°45' W 124°54'1 1.1
2016-Apr-24 12:34N 49°44' W 124°55'0 0.0
2016-Apr-24 11:33N 49°44' W 124°55'0 0.0
2016-Apr-24 10:30N 49°44' W 124°55'0 0.0
2016-Apr-24 09:30N 49°44' W 124°55'0 0.0
2016-Apr-24 08:31N 49°44' W 124°55'0 0.0
2016-Apr-24 07:30N 49°44' W 124°55'0 0.0
2016-Apr-24 06:03N 49°44' W 124°55'0 0.0
2016-Apr-24 05:30N 49°44' W 124°55'5 5.4
2016-Apr-24 04:34N 49°46' W 124°48'1110.7
2016-Apr-24 03:31N 49°50' W 124°32'9 9.2
2016-Apr-24 02:34N 49°47' W 124°45'7 7.1
2016-Apr-24 01:31N 49°44' W 124°55'0 0.0
2016-Apr-24 00:31N 49°44' W 124°55'0 0.0
2016-Apr-23 23:31N 49°44' W 124°55'0 0.0
2016-Apr-23 22:31N 49°44' W 124°55'0 0.0
2016-Apr-23 21:33N 49°44' W 124°55'0 0.0
2016-Apr-23 20:33N 49°44' W 124°55'8 8.1
2016-Apr-23 19:34N 49°48' W 124°44'8 8.2
2016-Apr-23 18:33N 49°50' W 124°32'1010.0
2016-Apr-23 17:33N 49°47' W 124°47'6 6.2
2016-Apr-23 16:33N 49°44' W 124°55'1212.0
2016-Apr-23 15:34N 49°49' W 124°38'2 1.9
2016-Apr-23 14:34N 49°50' W 124°36'1413.7
2016-Apr-23 13:34N 49°44' W 124°55'0 0.1
2016-Apr-23 12:32N 49°44' W 124°55'0 0.0
2016-Apr-23 11:32N 49°44' W 124°55'0 0.0
2016-Apr-23 10:29N 49°44' W 124°55'0 0.0
2016-Apr-23 09:32N 49°44' W 124°55'0 0.0
2016-Apr-23 08:26N 49°44' W 124°55'0 0.0
2016-Apr-23 07:26N 49°44' W 124°55'0 0.0
2016-Apr-23 06:32N 49°44' W 124°55'5 2.7
2016-Apr-23 04:33N 49°46' W 124°48'1111.0
2016-Apr-23 03:33N 49°50' W 124°32'1312.6
2016-Apr-23 02:33N 49°46' W 124°50'4 3.5
2016-Apr-23 01:32N 49°44' W 124°55'1212.3
2016-Apr-23 00:34N 49°49' W 124°38'3 3.5
2016-Apr-22 23:33N 49°50' W 124°33'1413.5
2016-Apr-22 22:33N 49°45' W 124°53'2 0.8
2016-Apr-22 20:21N 49°44' W 124°55'7 8.9
2016-Apr-22 19:33N 49°47' W 124°45'9 9.2
2016-Apr-22 18:34N 49°50' W 124°32'10 9.7
2016-Apr-22 17:33N 49°47' W 124°46'6 6.4
2016-Apr-22 16:33N 49°44' W 124°55'1211.7
2016-Apr-22 15:33N 49°49' W 124°39'4 3.5
2016-Apr-22 14:33N 49°50' W 124°34'1413.7
2016-Apr-22 13:33N 49°45' W 124°54'1 1.2
2016-Apr-22 12:29N 49°44' W 124°55'0 0.0
2016-Apr-22 11:23N 49°44' W 124°55'0 0.0
2016-Apr-22 10:29N 49°44' W 124°55'0 0.0
2016-Apr-22 09:29N 49°44' W 124°55'0 0.0
2016-Apr-22 08:32N 49°44' W 124°55'0 0.0
2016-Apr-22 07:32N 49°44' W 124°55'0 0.0
2016-Apr-22 06:29N 49°44' W 124°55'0 0.0
2016-Apr-22 05:29N 49°44' W 124°55'6 6.4
2016-Apr-22 04:34N 49°48' W 124°48'1110.5
2016-Apr-22 03:33N 49°50' W 124°32'1313.2
2016-Apr-22 02:33N 49°45' W 124°51'3 3.0
2016-Apr-22 01:33N 49°44' W 124°55'1414.1
2016-Apr-22 00:33N 49°49' W 124°35'1 1.0
2016-Apr-21 23:34N 49°50' W 124°34'1212.4
2016-Apr-21 22:33N 49°45' W 124°52'2 2.3
2016-Apr-21 21:33N 49°44' W 124°55'0 0.0
2016-Apr-21 20:33N 49°44' W 124°55'8 7.8
2016-Apr-21 19:33N 49°47' W 124°44'  
Track history (hours):
 
Tides and Currents Weather Stations Pressure Air Temp Water Temp Dewpoint Dewpoint Depression Visibility Wind Speed Wind Dir Waves Ship Positions

Queen Of Burnaby

Last reported at 2016-May-01 18:34 UTC. Time now 2016-May-01 19:27 UTC.
Position N 49°50' W 124°32'.

Length 130 m; draft 4 m.

MMSI: 316001246.

Date/timePositionNaut miles runAvg speedWind from/ knotsBaromVisibWave heightAir tempDewpointWater temp
2016-May-01 18:34N 49°50' W 124°32'1010.2
2016-May-01 17:33N 49°46' W 124°47'6 6.0
2016-May-01 16:33N 49°44' W 124°55'1211.8
2016-May-01 15:33N 49°49' W 124°38'2 2.3
2016-May-01 14:33N 49°50' W 124°35'1212.1
2016-May-01 13:33N 49°45' W 124°53'2 1.4
2016-May-01 12:10N 49°44' W 124°55'0 0.0
2016-May-01 11:28N 49°44' W 124°55'0 0.0
2016-May-01 10:25N 49°44' W 124°55'0 0.0
2016-May-01 09:28N 49°44' W 124°55'0 0.0
2016-May-01 08:28N 49°44' W 124°55'0 0.0
2016-May-01 07:28N 49°44' W 124°55'0 0.0
2016-May-01 06:31N 49°44' W 124°55'0 0.0
2016-May-01 05:31N 49°44' W 124°55'5 5.0
2016-May-01 04:33N 49°46' W 124°49'1111.4
2016-May-01 03:34N 49°50' W 124°32'8 8.2
2016-May-01 02:34N 49°47' W 124°44'8 7.7
2016-May-01 01:32N 49°44' W 124°55'0 0.0
2016-May-01 00:29N 49°44' W 124°55'0 0.0
2016-Apr-30 23:26N 49°44' W 124°55'0 0.0
2016-Apr-30 22:32N 49°44' W 124°55'0 0.0
2016-Apr-30 20:15N 49°44' W 124°55'710.2
2016-Apr-30 19:33N 49°47' W 124°45'9 8.8
2016-Apr-30 18:32N 49°50' W 124°32'1010.1
2016-Apr-30 17:33N 49°47' W 124°46'6 6.3
2016-Apr-30 16:33N 49°44' W 124°55'1010.5
2016-Apr-30 15:34N 49°48' W 124°40'5 5.2
2016-Apr-30 14:33N 49°50' W 124°33'1413.5
2016-Apr-30 13:33N 49°45' W 124°52'2 1.9
2016-Apr-30 12:25N 49°44' W 124°55'0 0.0
2016-Apr-30 11:28N 49°44' W 124°55'0 0.0
2016-Apr-30 10:31N 49°44' W 124°55'0 0.0
2016-Apr-30 09:28N 49°44' W 124°55'0 0.0
2016-Apr-30 08:31N 49°44' W 124°55'0 0.0
2016-Apr-30 07:31N 49°44' W 124°55'0 0.0
2016-Apr-30 06:31N 49°44' W 124°55'0 0.0
2016-Apr-30 05:31N 49°44' W 124°55'7 6.9
2016-Apr-30 04:34N 49°47' W 124°46'10 9.6
2016-Apr-30 03:33N 49°50' W 124°32'1414.2
2016-Apr-30 02:33N 49°45' W 124°53'0 0.5
2016-Apr-30 01:33N 49°45' W 124°52'1413.7
2016-Apr-30 00:33N 49°50' W 124°32'6 6.3
2016-Apr-29 23:33N 49°48' W 124°41'10 8.4
2016-Apr-29 22:22N 49°44' W 124°55'0 0.0
2016-Apr-29 21:22N 49°44' W 124°55'0 0.0
2016-Apr-29 20:31N 49°44' W 124°55'9 8.8
2016-Apr-29 19:33N 49°47' W 124°43'8 7.7
2016-Apr-29 18:33N 49°50' W 124°32'1111.0
2016-Apr-29 17:33N 49°46' W 124°48'5 5.2
2016-Apr-29 16:33N 49°44' W 124°55'1212.4
2016-Apr-29 15:34N 49°49' W 124°38'3 2.9
2016-Apr-29 14:33N 49°50' W 124°33'1313.4
2016-Apr-29 13:33N 49°45' W 124°53'2 0.6
2016-Apr-29 10:31N 49°44' W 124°55'0 0.0
2016-Apr-29 09:13N 49°44' W 124°55'0 0.0
2016-Apr-29 08:28N 49°44' W 124°55'0 0.0
2016-Apr-29 07:31N 49°44' W 124°55'0 0.0
2016-Apr-29 06:31N 49°44' W 124°55'0 0.0
2016-Apr-29 05:28N 49°44' W 124°55'6 6.4
2016-Apr-29 04:33N 49°47' W 124°47'1010.5
2016-Apr-29 03:34N 49°50' W 124°32'1313.3
2016-Apr-29 02:33N 49°45' W 124°51'3 2.9
2016-Apr-29 01:33N 49°44' W 124°55'1212.2
2016-Apr-29 00:33N 49°49' W 124°38'4 4.0
2016-Apr-28 23:33N 49°50' W 124°32'1413.7
2016-Apr-28 22:33N 49°45' W 124°52'2 1.9
2016-Apr-28 21:23N 49°44' W 124°55'0 0.0
2016-Apr-28 20:26N 49°44' W 124°55'8 9.0
2016-Apr-28 19:33N 49°47' W 124°44'8 8.3
2016-Apr-28 18:33N 49°50' W 124°32'10 9.9
2016-Apr-28 17:33N 49°47' W 124°46'6 6.4
2016-Apr-28 16:33N 49°44' W 124°55'1111.2
2016-Apr-28 15:33N 49°48' W 124°39'5 4.9
2016-Apr-28 14:33N 49°50' W 124°32'1414.4
2016-Apr-28 13:33N 49°45' W 124°53'2 1.8
2016-Apr-28 12:33N 49°44' W 124°55'0 0.0
2016-Apr-28 11:33N 49°44' W 124°55'0 0.0
2016-Apr-28 10:27N 49°44' W 124°55'0 0.0
2016-Apr-28 09:33N 49°44' W 124°55'0 0.0
2016-Apr-28 08:33N 49°44' W 124°55'0 0.0
2016-Apr-28 07:30N 49°44' W 124°55'0 0.0
2016-Apr-28 06:33N 49°44' W 124°55'0 0.0
2016-Apr-28 05:33N 49°44' W 124°55'5 5.0
2016-Apr-28 04:33N 49°46' W 124°48'1111.3
2016-Apr-28 03:33N 49°50' W 124°32'8 8.1
2016-Apr-28 02:33N 49°47' W 124°44'8 8.0
2016-Apr-28 01:33N 49°44' W 124°55'0 0.0
2016-Apr-28 00:30N 49°44' W 124°55'0 0.0
2016-Apr-27 23:30N 49°44' W 124°55'0 0.0
2016-Apr-27 22:33N 49°44' W 124°55'0 0.0
2016-Apr-27 21:18N 49°44' W 124°55'0 0.0
2016-Apr-27 20:30N 49°44' W 124°55'8 8.1
2016-Apr-27 19:33N 49°47' W 124°45'9 8.6
2016-Apr-27 18:33N 49°50' W 124°32'10 9.5
2016-Apr-27 17:33N 49°47' W 124°46'7 6.7
2016-Apr-27 16:33N 49°44' W 124°55'1110.7
2016-Apr-27 15:33N 49°48' W 124°40'5 5.0
2016-Apr-27 14:34N 49°50' W 124°33'1413.7
2016-Apr-27 13:33N 49°45' W 124°53'2 1.9
2016-Apr-27 12:31N 49°44' W 124°55'0 0.0
2016-Apr-27 11:31N 49°44' W 124°55'0 0.0
2016-Apr-27 10:31N 49°44' W 124°55'0 0.0
2016-Apr-27 09:31N 49°44' W 124°55'0 0.0
2016-Apr-27 08:31N 49°44' W 124°55'0 0.0
2016-Apr-27 07:31N 49°44' W 124°55'0 0.0
2016-Apr-27 06:29N 49°44' W 124°55'0 0.0
2016-Apr-27 05:32N 49°44' W 124°55'6 6.5
2016-Apr-27 04:33N 49°47' W 124°46'10 9.9
2016-Apr-27 03:33N 49°50' W 124°32'1313.1
2016-Apr-27 02:34N 49°46' W 124°51'3 3.2
2016-Apr-27 01:33N 49°44' W 124°55'1212.1
2016-Apr-27 00:33N 49°49' W 124°38'4 3.6
2016-Apr-26 23:33N 49°50' W 124°33'1413.8
2016-Apr-26 22:33N 49°45' W 124°53'2 2.0
2016-Apr-26 21:32N 49°44' W 124°55'0 0.0
2016-Apr-26 20:32N 49°44' W 124°55'8 7.9
2016-Apr-26 19:34N 49°47' W 124°44'9 8.5
2016-Apr-26 18:34N 49°50' W 124°32'9 9.4
2016-Apr-26 17:34N 49°47' W 124°46'7 6.7
2016-Apr-26 16:33N 49°44' W 124°55'1111.0
2016-Apr-26 15:33N 49°48' W 124°40'5 4.6
2016-Apr-26 14:33N 49°50' W 124°33'1413.6
2016-Apr-26 13:34N 49°45' W 124°53'2 1.8
2016-Apr-26 12:28N 49°44' W 124°55'0 0.0
2016-Apr-26 11:28N 49°44' W 124°55'0 0.0
2016-Apr-26 10:31N 49°44' W 124°55'0 0.0
2016-Apr-26 09:31N 49°44' W 124°55'0 0.0
2016-Apr-26 08:31N 49°44' W 124°55'0 0.0
2016-Apr-26 07:31N 49°44' W 124°55'0 0.0
2016-Apr-26 06:31N 49°44' W 124°55'0 0.0
2016-Apr-26 05:31N 49°44' W 124°55'5 5.2
2016-Apr-26 04:33N 49°46' W 124°48'1111.3
2016-Apr-26 03:33N 49°50' W 124°32'1212.5
2016-Apr-26 02:33N 49°46' W 124°50'4 3.7
2016-Apr-26 01:33N 49°44' W 124°55'1212.0
2016-Apr-26 00:33N 49°49' W 124°38'3 3.5
2016-Apr-25 23:33N 49°50' W 124°33'1312.9
2016-Apr-25 22:33N 49°45' W 124°52'2 2.4
2016-Apr-25 21:33N 49°44' W 124°55'0 0.0
2016-Apr-25 20:33N 49°44' W 124°55'8 7.8
2016-Apr-25 19:33N 49°47' W 124°44'8 8.5
2016-Apr-25 18:34N 49°50' W 124°32'1110.6
2016-Apr-25 17:33N 49°46' W 124°47'6 5.6
2016-Apr-25 16:34N 49°44' W 124°55'1111.4
2016-Apr-25 15:34N 49°48' W 124°39'4 3.9
2016-Apr-25 14:33N 49°50' W 124°34'1413.7
2016-Apr-25 13:33N 49°45' W 124°53'2 1.6
2016-Apr-25 12:33N 49°44' W 124°55'0 0.0
2016-Apr-25 11:33N 49°44' W 124°55'0 0.0
2016-Apr-25 10:33N 49°44' W 124°55'0 0.0
2016-Apr-25 09:33N 49°44' W 124°55'0 0.0
2016-Apr-25 08:33N 49°44' W 124°55'0 0.0
2016-Apr-25 07:33N 49°44' W 124°55'0 0.0
2016-Apr-25 06:33N 49°44' W 124°55'0 0.0
2016-Apr-25 05:27N 49°44' W 124°55'6 6.3
2016-Apr-25 04:34N 49°48' W 124°48'1110.8
2016-Apr-25 03:33N 49°50' W 124°32'1212.5
2016-Apr-25 02:34N 49°46' W 124°50'4 3.9
2016-Apr-25 01:33N 49°44' W 124°55'1212.3
2016-Apr-25 00:33N 49°49' W 124°38'3 3.4
2016-Apr-24 23:33N 49°50' W 124°33'1312.5
2016-Apr-24 22:33N 49°45' W 124°51'3 2.7
2016-Apr-24 21:26N 49°44' W 124°55'0 0.0
2016-Apr-24 20:26N 49°44' W 124°55'7 8.4
2016-Apr-24 19:33N 49°47' W 124°45'9 9.0
2016-Apr-24 18:33N 49°50' W 124°32'10 9.8
2016-Apr-24 17:33N 49°47' W 124°46'6 6.4
2016-Apr-24 16:33N 49°44' W 124°55'1111.1
2016-Apr-24 15:33N 49°48' W 124°39'4 4.0
2016-Apr-24 14:34N 49°50' W 124°34'1413.9
2016-Apr-24 13:33N 49°45' W 124°54'1 1.1
2016-Apr-24 12:34N 49°44' W 124°55'0 0.0
2016-Apr-24 11:33N 49°44' W 124°55'0 0.0
2016-Apr-24 10:30N 49°44' W 124°55'0 0.0
2016-Apr-24 09:30N 49°44' W 124°55'0 0.0
2016-Apr-24 08:31N 49°44' W 124°55'0 0.0
2016-Apr-24 07:30N 49°44' W 124°55'0 0.0
2016-Apr-24 06:03N 49°44' W 124°55'0 0.0
2016-Apr-24 05:30N 49°44' W 124°55'5 5.4
2016-Apr-24 04:34N 49°46' W 124°48'1110.7
2016-Apr-24 03:31N 49°50' W 124°32'9 9.2
2016-Apr-24 02:34N 49°47' W 124°45'7 7.1
2016-Apr-24 01:31N 49°44' W 124°55'0 0.0
2016-Apr-24 00:31N 49°44' W 124°55'0 0.0
2016-Apr-23 23:31N 49°44' W 124°55'0 0.0
2016-Apr-23 22:31N 49°44' W 124°55'0 0.0
2016-Apr-23 21:33N 49°44' W 124°55'0 0.0
2016-Apr-23 20:33N 49°44' W 124°55'8 8.1
2016-Apr-23 19:34N 49°48' W 124°44'8 8.2
2016-Apr-23 18:33N 49°50' W 124°32'1010.0
2016-Apr-23 17:33N 49°47' W 124°47'6 6.2
2016-Apr-23 16:33N 49°44' W 124°55'1212.0
2016-Apr-23 15:34N 49°49' W 124°38'2 1.9
2016-Apr-23 14:34N 49°50' W 124°36'1413.7
2016-Apr-23 13:34N 49°44' W 124°55'0 0.1
2016-Apr-23 12:32N 49°44' W 124°55'0 0.0
2016-Apr-23 11:32N 49°44' W 124°55'0 0.0
2016-Apr-23 10:29N 49°44' W 124°55'0 0.0
2016-Apr-23 09:32N 49°44' W 124°55'0 0.0
2016-Apr-23 08:26N 49°44' W 124°55'0 0.0
2016-Apr-23 07:26N 49°44' W 124°55'0 0.0
2016-Apr-23 06:32N 49°44' W 124°55'5 2.7
2016-Apr-23 04:33N 49°46' W 124°48'1111.0
2016-Apr-23 03:33N 49°50' W 124°32'1312.6
2016-Apr-23 02:33N 49°46' W 124°50'4 3.5
2016-Apr-23 01:32N 49°44' W 124°55'1212.3
2016-Apr-23 00:34N 49°49' W 124°38'3 3.5
2016-Apr-22 23:33N 49°50' W 124°33'1413.5
2016-Apr-22 22:33N 49°45' W 124°53'2 0.8
2016-Apr-22 20:21N 49°44' W 124°55'7 8.9
2016-Apr-22 19:33N 49°47' W 124°45'9 9.2
2016-Apr-22 18:34N 49°50' W 124°32'10 9.7
2016-Apr-22 17:33N 49°47' W 124°46'6 6.4
2016-Apr-22 16:33N 49°44' W 124°55'1211.7
2016-Apr-22 15:33N 49°49' W 124°39'4 3.5
2016-Apr-22 14:33N 49°50' W 124°34'1413.7
2016-Apr-22 13:33N 49°45' W 124°54'1 1.2
2016-Apr-22 12:29N 49°44' W 124°55'0 0.0
2016-Apr-22 11:23N 49°44' W 124°55'0 0.0
2016-Apr-22 10:29N 49°44' W 124°55'0 0.0
2016-Apr-22 09:29N 49°44' W 124°55'0 0.0
2016-Apr-22 08:32N 49°44' W 124°55'0 0.0
2016-Apr-22 07:32N 49°44' W 124°55'0 0.0
2016-Apr-22 06:29N 49°44' W 124°55'0 0.0
2016-Apr-22 05:29N 49°44' W 124°55'6 6.4
2016-Apr-22 04:34N 49°48' W 124°48'1110.5
2016-Apr-22 03:33N 49°50' W 124°32'1313.2
2016-Apr-22 02:33N 49°45' W 124°51'3 3.0
2016-Apr-22 01:33N 49°44' W 124°55'1414.1
2016-Apr-22 00:33N 49°49' W 124°35'1 1.0
2016-Apr-21 23:34N 49°50' W 124°34'1212.4
2016-Apr-21 22:33N 49°45' W 124°52'2 2.3
2016-Apr-21 21:33N 49°44' W 124°55'0 0.0
2016-Apr-21 20:33N 49°44' W 124°55'8 7.8
2016-Apr-21 19:33N 49°47' W 124°44'  

Dump ship's entire track history